Terminal Aerodrome Forecast
Issued by NWS Cleveland, OH

Home | Current Version | Previous Version | Graphics & Text | Print | Product List | Glossary On
Versions: 1 2 3 4 5 6 7 8 9 10 11 12 13 14 15 16 17 18 19
000
FTUS41 KCLE 310543
TAFCAK
TAF
KCAK 310543Z 3106/0106 VRB05KT P6SM VCSH SCT025 OVC080
     FM311000 01008KT 4SM -SHRA BR OVC015
     FM311500 06010KT 2SM -SHRA BR OVC007
     FM311800 02012KT 3SM -SHRA BR OVC003
     FM312300 01008KT P6SM OVC003=

USA.gov is the U.S. government's official web portal to all federal, state and local government web resources and services.